Nogales International Airport Nogales US
ICAO: KOLS
IATA: OLS
Category: Medium
Scheduled Services: No

Elevation: 3955 ft
TransAlt. 18000 ft.

Airport Communications:
TUCSON APP DEP:125.1
ASOS:121.125
PRESCOTT RDO:122.4
CTAF/UNICOM:122.8

KOLS Zoom In..

Runways:

(A) RW 03 length 7200 ft width 100 ft
---- / hdg 34

(B) RW 21 length 7200 ft width 100 ft
---- / hdg 214

Location; KOLS
Day. 14 / Time. 01.54 Zulu
* Altimeter: 30.01
* Temperature: 35° c. 95°f.
* Wind from: 250° Speed 11 kn with Gusts up to 16 kn.
Dewpoint: 12° c.
Visibility: 10 Statute Miles.
Clouds: Clear (automated report).

KOLS 140154Z AUTO 25011G16KT 10SM CLR 35/12 A3001 RMK AO2 SLP079 T03500122

Going to: --> -->


Wind From 250°
Speed 11 kn.

 
 
jpsmedia worldairports.se 2020   terms of use